Time;durP1;ratioP1;P1;durP2;ratioP2;P2;SDS_P1;SDS_P2;PMS_P1;PMS_P2;Temp;Humidity;BMP_temperature;BMP_pressure;BME280_temperature;BME280_humidity;BME280_pressure;Samples;Min_cycle;Max_cycle;Signal;HPM_P1;HPM_P2
2021/03/22 00:00:59;;;;;;;12.83;3.60;;;;;;;2.45;100.00;98487.27;3658226;79;42955;-71
2021/03/22 00:06:06;;;;;;;13.80;3.20;;;;;;;2.37;100.00;98483.44;3709340;79;43674;-71
2021/03/22 00:11:12;;;;;;;11.67;2.97;;;;;;;2.38;100.00;98486.48;3710409;79;43530;-70
2021/03/22 00:16:19;;;;;;;14.87;3.67;;;;;;;2.29;100.00;98487.50;3671727;80;43744;-70
2021/03/22 00:21:25;;;;;;;16.13;3.90;;;;;;;2.12;100.00;98486.48;3584332;81;44066;-71
2021/03/22 00:26:32;;;;;;;13.10;3.30;;;;;;;1.91;100.00;98485.67;3645852;80;44021;-70
2021/03/22 00:31:38;;;;;;;14.70;4.20;;;;;;;1.99;100.00;98489.14;3722859;79;43669;-70
2021/03/22 00:36:45;;;;;;;16.83;3.67;;;;;;;2.04;100.00;98485.70;3714023;79;43669;-70
2021/03/22 00:41:51;;;;;;;14.83;3.50;;;;;;;2.09;100.00;98492.86;3767391;77;42815;-71
2021/03/22 00:46:57;;;;;;;14.33;3.03;;;;;;;2.07;100.00;98492.11;3776583;77;43714;-70
2021/03/22 00:52:07;;;;;;;14.73;3.57;;;;;;;2.11;100.00;98486.97;3780567;77;43718;-70
2021/03/22 00:57:13;;;;;;;13.90;3.33;;;;;;;2.15;100.00;98491.59;3782226;77;44061;-71
2021/03/22 01:02:19;;;;;;;19.00;3.63;;;;;;;2.22;100.00;98490.23;3771909;77;43408;-70
2021/03/22 01:07:25;;;;;;;16.00;4.20;;;;;;;2.25;100.00;98496.63;3786153;77;43184;-70
2021/03/22 01:12:31;;;;;;;15.60;3.60;;;;;;;2.21;100.00;98492.52;3789613;77;44027;-71
2021/03/22 01:17:37;;;;;;;16.10;4.00;;;;;;;2.18;100.00;98491.84;3770680;77;43622;-71
2021/03/22 01:22:43;;;;;;;13.10;3.60;;;;;;;2.14;100.00;98495.20;3792980;77;44450;-71
2021/03/22 01:27:50;;;;;;;11.23;3.07;;;;;;;2.14;100.00;98494.73;3794269;77;44072;-71
2021/03/22 01:32:58;;;;;;;12.70;3.40;;;;;;;2.17;100.00;98484.37;3790220;77;43252;-71
2021/03/22 01:38:04;;;;;;;16.53;4.10;;;;;;;2.12;100.00;98486.02;3760983;77;45111;-71
2021/03/22 01:43:13;;;;;;;13.73;3.30;;;;;;;2.12;100.00;98482.03;3727456;78;43093;-71
2021/03/22 01:48:19;;;;;;;16.50;3.90;;;;;;;2.13;100.00;98474.89;3662241;80;44022;-71
2021/03/22 01:53:26;;;;;;;14.60;3.30;;;;;;;2.06;100.00;98470.97;3590290;81;43682;-71
2021/03/22 01:58:32;;;;;;;12.17;3.20;;;;;;;2.17;100.00;98474.23;3682531;80;43388;-71
2021/03/22 02:03:38;;;;;;;17.80;3.87;;;;;;;2.13;100.00;98468.25;3705952;79;43405;-71
2021/03/22 02:08:47;;;;;;;14.60;3.77;;;;;;;2.10;100.00;98470.66;3706760;79;43681;-70
2021/03/22 02:13:54;;;;;;;14.77;3.43;;;;;;;2.05;100.00;98474.13;3672549;80;43230;-70
2021/03/22 02:19:07;;;;;;;13.47;3.33;;;;;;;1.99;100.00;98477.19;3586701;81;44323;-70
2021/03/22 02:24:48;;;;;;;18.30;3.60;;;;;;;1.98;100.00;98473.69;3655377;80;43409;-71
2021/03/22 02:30:20;;;;;;;15.30;3.60;;;;;;;2.01;100.00;98468.64;3712393;79;43431;-71
2021/03/22 02:35:29;;;;;;;11.50;3.00;;;;;;;1.98;100.00;98468.84;3712289;79;43679;-70
2021/03/22 02:40:38;;;;;;;16.17;4.63;;;;;;;1.93;100.00;98465.17;3692233;79;43770;-70
2021/03/22 02:45:45;;;;;;;15.33;3.17;;;;;;;1.95;100.00;98461.07;3691174;79;43674;-70
2021/03/22 02:50:55;;;;;;;10.03;3.20;;;;;;;2.00;100.00;98460.29;3758222;77;44648;-70
2021/03/22 02:56:06;;;;;;;13.93;3.30;;;;;;;2.05;100.00;98451.53;3764276;77;43538;-70
2021/03/22 03:01:16;;;;;;;12.67;3.40;;;;;;;1.93;100.00;98460.35;3754012;77;43461;-70
2021/03/22 03:06:22;;;;;;;18.53;3.20;;;;;;;1.96;100.00;98461.45;3694644;79;43320;-70
2021/03/22 03:11:28;;;;;;;16.37;3.00;;;;;;;2.04;100.00;98468.44;3757197;77;43665;-70
2021/03/22 03:16:35;;;;;;;14.13;3.80;;;;;;;1.99;100.00;98474.53;3697612;79;42959;-70
2021/03/22 03:21:41;;;;;;;12.40;2.67;;;;;;;1.98;100.00;98476.81;3760761;77;43911;-70
2021/03/22 03:26:47;;;;;;;9.97;3.33;;;;;;;1.98;100.00;98476.81;3696023;79;44756;-69
2021/03/22 03:31:53;;;;;;;15.17;3.10;;;;;;;2.03;100.00;98480.02;3764825;77;43689;-70
2021/03/22 03:36:59;;;;;;;13.83;2.73;;;;;;;1.95;100.00;98482.33;3731443;77;44064;-69
2021/03/22 03:42:06;;;;;;;17.50;3.40;;;;;;;1.96;100.00;98480.91;3759921;77;44084;-70
2021/03/22 03:47:12;;;;;;;14.70;3.40;;;;;;;1.99;100.00;98479.38;3767210;77;44095;-69
2021/03/22 03:52:18;;;;;;;13.00;3.00;;;;;;;1.90;100.00;98477.33;3762923;77;43745;-70
2021/03/22 03:57:24;;;;;;;15.53;3.13;;;;;;;1.90;100.00;98472.51;3759609;77;43718;-70
2021/03/22 04:02:30;;;;;;;11.00;2.93;;;;;;;1.96;100.00;98481.38;3759086;77;44020;-70
2021/03/22 04:07:37;;;;;;;15.20;3.13;;;;;;;1.85;100.00;98484.29;3766101;77;43678;-68
2021/03/22 04:12:43;;;;;;;10.73;2.80;;;;;;;1.79;100.00;98488.70;3772025;77;43532;-69
2021/03/22 04:17:50;;;;;;;17.00;4.40;;;;;;;1.69;100.00;98484.98;3776378;77;43427;-69
2021/03/22 04:22:57;;;;;;;18.53;3.10;;;;;;;1.69;100.00;98490.29;3774328;77;44367;-68
2021/03/22 04:28:04;;;;;;;16.33;2.93;;;;;;;1.67;100.00;98488.20;3773678;77;42982;-70
2021/03/22 04:33:10;;;;;;;12.97;3.00;;;;;;;1.65;100.00;98498.91;3777721;77;44180;-68
2021/03/22 04:38:16;;;;;;;13.13;3.53;;;;;;;1.65;100.00;98492.77;3775142;77;44088;-69
2021/03/22 04:43:22;;;;;;;13.60;3.33;;;;;;;1.63;100.00;98490.22;3764823;77;44514;-68
2021/03/22 04:48:28;;;;;;;13.93;3.57;;;;;;;1.59;100.00;98494.52;3775672;77;44056;-69
2021/03/22 04:53:35;;;;;;;21.97;3.80;;;;;;;1.60;100.00;98505.48;3785660;77;43134;-69
2021/03/22 04:58:41;;;;;;;14.17;2.73;;;;;;;1.62;100.00;98511.55;3771826;77;43422;-69
2021/03/22 05:03:47;;;;;;;14.53;3.67;;;;;;;1.61;100.00;98511.17;3782161;77;43456;-68
2021/03/22 05:08:55;;;;;;;15.27;3.17;;;;;;;1.63;100.00;98511.93;3782678;77;43726;-69
2021/03/22 05:14:01;;;;;;;12.87;3.03;;;;;;;1.61;100.00;98512.50;3781609;77;43749;-70
2021/03/22 05:19:07;;;;;;;16.23;3.33;;;;;;;1.63;100.00;98519.44;3777731;77;44115;-70
2021/03/22 05:24:13;;;;;;;16.13;3.70;;;;;;;1.64;100.00;98509.66;3786252;77;43937;-69
2021/03/22 05:29:20;;;;;;;13.23;3.07;;;;;;;1.57;100.00;98511.86;3779390;77;43681;-70
2021/03/22 05:34:25;;;;;;;9.60;2.60;;;;;;;1.54;100.00;98522.22;3781987;77;43584;-69
2021/03/22 05:39:31;;;;;;;15.67;3.87;;;;;;;1.56;100.00;98525.25;3778451;77;43701;-69
2021/03/22 05:44:45;;;;;;;13.63;3.30;;;;;;;1.47;100.00;98539.98;3798352;77;43394;-69
2021/03/22 05:50:10;;;;;;;11.37;3.10;;;;;;;1.53;100.00;98542.22;3794187;77;42876;-70
2021/03/22 05:55:40;;;;;;;12.07;3.27;;;;;;;1.50;100.00;98546.42;3786740;77;42903;-68
2021/03/22 06:00:50;;;;;;;13.13;2.67;;;;;;;1.51;100.00;98548.97;3786815;77;44052;-68
2021/03/22 06:06:05;;;;;;;13.93;3.27;;;;;;;1.56;100.00;98547.82;3798914;77;44032;-70
2021/03/22 06:11:19;;;;;;;13.97;3.60;;;;;;;1.56;100.00;98549.16;3788166;77;43325;-68
2021/03/22 06:16:29;;;;;;;12.93;3.90;;;;;;;1.58;100.00;98550.75;3800422;77;44009;-70
2021/03/22 06:21:38;;;;;;;16.53;3.40;;;;;;;1.60;100.00;98549.30;3788527;77;43918;-71
2021/03/22 06:26:47;;;;;;;8.40;3.10;;;;;;;1.62;100.00;98550.92;3799148;77;43487;-70
2021/03/22 06:31:56;;;;;;;16.83;3.43;;;;;;;1.56;100.00;98544.67;3806338;77;43285;-70
2021/03/22 06:37:03;;;;;;;12.97;3.17;;;;;;;1.62;100.00;98558.03;3798008;77;44049;-70
2021/03/22 06:42:20;;;;;;;16.23;3.50;;;;;;;1.64;100.00;98560.98;3776176;77;44069;-70
2021/03/22 06:47:30;;;;;;;9.40;3.33;;;;;;;1.69;100.00;98569.97;3777842;77;43646;-69
2021/03/22 06:52:42;;;;;;;14.77;3.30;;;;;;;1.67;100.00;98566.55;3800570;77;44155;-68
2021/03/22 06:57:53;;;;;;;12.47;3.20;;;;;;;1.69;100.00;98572.62;3786381;77;43674;-69
2021/03/22 07:03:00;;;;;;;16.87;3.60;;;;;;;1.73;100.00;98586.55;3789713;77;44501;-69
2021/03/22 07:08:08;;;;;;;12.77;3.40;;;;;;;1.82;100.00;98588.09;3791048;77;44100;-69
2021/03/22 07:13:22;;;;;;;18.87;3.73;;;;;;;1.93;100.00;98596.69;3797219;77;43681;-69
2021/03/22 07:18:32;;;;;;;11.60;3.40;;;;;;;2.06;100.00;98603.36;3776429;77;42959;-69
2021/03/22 07:23:49;;;;;;;16.37;3.50;;;;;;;2.23;100.00;98608.89;3763106;77;43351;-69
2021/03/22 07:29:03;;;;;;;11.73;3.40;;;;;;;2.42;100.00;98615.61;3774547;77;43387;-69
2021/03/22 07:34:31;;;;;;;12.93;3.90;;;;;;;2.50;100.00;98631.04;3796320;77;43450;-69
2021/03/22 07:39:41;;;;;;;11.77;3.63;;;;;;;2.55;100.00;98624.91;3701714;79;44098;-69
2021/03/22 07:45:37;;;;;;;14.93;4.03;;;;;;;2.60;100.00;98632.95;3689567;79;44535;-69
2021/03/22 07:50:45;;;;;;;18.93;3.87;;;;;;;2.75;100.00;98634.18;3700526;79;43431;-69
2021/03/22 07:55:54;;;;;;;13.47;4.27;;;;;;;2.76;100.00;98635.39;3693844;79;43711;-69
2021/03/22 08:01:04;;;;;;;16.23;5.57;;;;;;;2.71;100.00;98641.53;3697547;79;42970;-69
2021/03/22 08:06:22;;;;;;;16.57;4.80;;;;;;;2.64;100.00;98644.25;3781406;77;43438;-69
2021/03/22 08:11:35;;;;;;;15.40;5.30;;;;;;;2.65;100.00;98645.09;3776559;77;43734;-69
2021/03/22 08:17:01;;;;;;;16.63;5.00;;;;;;;2.52;100.00;98657.90;3792282;77;43037;-68
2021/03/22 08:22:12;;;;;;;15.10;4.20;;;;;;;2.70;100.00;98652.29;3776774;77;43661;-69
2021/03/22 08:27:23;;;;;;;16.03;5.23;;;;;;;2.74;100.00;98661.28;3778987;77;44107;-69
2021/03/22 08:32:43;;;;;;;15.17;4.93;;;;;;;2.77;100.00;98666.37;3770574;77;43483;-69
2021/03/22 08:37:54;;;;;;;16.53;5.80;;;;;;;2.90;100.00;98670.38;3782314;77;43714;-69
2021/03/22 08:43:03;;;;;;;15.03;5.07;;;;;;;2.87;100.00;98685.72;3771312;77;44220;-69
2021/03/22 08:48:14;;;;;;;18.50;6.47;;;;;;;3.09;100.00;98691.71;3790190;77;43409;-69
2021/03/22 08:53:22;;;;;;;16.70;5.70;;;;;;;3.20;100.00;98695.80;3793012;77;44108;-69
2021/03/22 08:58:31;;;;;;;17.53;5.77;;;;;;;3.27;100.00;98696.22;3790058;77;43356;-70
2021/03/22 09:03:40;;;;;;;28.33;7.03;;;;;;;3.48;100.00;98704.52;3800470;77;44036;-69
2021/03/22 09:09:23;;;;;;;14.87;5.80;;;;;;;3.58;100.00;98702.05;3776764;77;44434;-69
2021/03/22 09:14:46;;;;;;;19.60;6.53;;;;;;;3.62;100.00;98703.52;3733251;77;44131;-70
2021/03/22 09:19:56;;;;;;;17.60;5.23;;;;;;;3.87;100.00;98688.42;3787364;77;44051;-70
2021/03/22 09:25:02;;;;;;;13.57;5.30;;;;;;;4.00;100.00;98697.22;3788962;77;43298;-70
2021/03/22 09:30:41;;;;;;;21.97;6.00;;;;;;;4.12;100.00;98684.78;3794838;77;44623;-70
2021/03/22 09:36:36;;;;;;;16.83;5.17;;;;;;;4.17;100.00;98695.14;3794943;77;44538;-70
2021/03/22 09:42:04;;;;;;;20.30;5.10;;;;;;;4.42;100.00;98695.48;3779042;77;43403;-70
2021/03/22 09:47:21;;;;;;;11.97;4.73;;;;;;;4.30;99.02;98705.73;3775292;77;43639;-70
2021/03/22 09:52:30;;;;;;;13.97;5.10;;;;;;;4.38;96.36;98708.67;3778558;77;43647;-70
2021/03/22 09:57:44;;;;;;;19.57;5.20;;;;;;;4.37;97.50;98717.63;3792753;77;43109;-70
2021/03/22 10:02:54;;;;;;;21.03;5.63;;;;;;;4.39;94.77;98718.88;3799160;77;43363;-70
2021/03/22 10:08:19;;;;;;;12.57;5.10;;;;;;;4.33;96.70;98717.52;3777603;77;44037;-70
2021/03/22 10:13:30;;;;;;;15.53;5.20;;;;;;;4.39;94.17;98724.20;3790159;77;44067;-70
2021/03/22 10:18:39;;;;;;;14.47;4.43;;;;;;;4.51;97.71;98721.95;3787823;77;44043;-70
2021/03/22 10:23:52;;;;;;;15.80;5.00;;;;;;;4.72;93.33;98714.12;3773791;77;44028;-70
2021/03/22 10:29:17;;;;;;;15.90;4.90;;;;;;;4.82;94.09;98714.28;3781331;77;44473;-70
2021/03/22 10:34:26;;;;;;;11.73;5.50;;;;;;;4.85;94.13;98731.88;3782575;77;44126;-71
2021/03/22 10:39:34;;;;;;;17.33;4.93;;;;;;;4.51;90.89;98738.42;3767363;77;44001;-71
2021/03/22 10:44:41;;;;;;;14.63;5.50;;;;;;;4.65;95.98;98732.91;3787563;77;43711;-71
2021/03/22 10:49:48;;;;;;;20.37;5.20;;;;;;;4.60;97.47;98729.27;3779086;77;43454;-70
2021/03/22 10:54:59;;;;;;;11.27;4.63;;;;;;;4.53;96.27;98734.67;3768697;77;44055;-70
2021/03/22 11:00:09;;;;;;;17.97;5.30;;;;;;;4.55;95.05;98744.75;3765909;77;44442;-70
2021/03/22 11:05:18;;;;;;;15.57;4.80;;;;;;;4.77;95.94;98733.78;3794328;77;43982;-71
2021/03/22 11:10:26;;;;;;;11.90;4.93;;;;;;;4.98;94.48;98738.48;3790338;77;43555;-70
2021/03/22 11:15:35;;;;;;;15.20;4.90;;;;;;;5.14;92.02;98730.96;3790990;77;44163;-69
2021/03/22 11:20:44;;;;;;;12.93;4.40;;;;;;;5.39;90.55;98726.38;3773641;77;43414;-69
2021/03/22 11:25:50;;;;;;;13.20;4.57;;;;;;;5.70;89.04;98722.13;3785654;77;43311;-69
2021/03/22 11:31:04;;;;;;;18.10;5.00;;;;;;;5.57;88.38;98713.87;3779256;77;44134;-69
2021/03/22 11:36:14;;;;;;;10.57;4.20;;;;;;;5.48;86.98;98728.31;3786308;77;44501;-70
2021/03/22 11:41:32;;;;;;;11.97;4.30;;;;;;;5.42;85.95;98723.47;3788897;77;44012;-69
2021/03/22 11:46:38;;;;;;;11.97;4.93;;;;;;;5.45;86.19;98733.92;3780174;77;43284;-70
2021/03/22 11:51:51;;;;;;;17.03;5.40;;;;;;;5.18;89.51;98738.25;3749911;77;44063;-69
2021/03/22 11:57:02;;;;;;;14.93;4.80;;;;;;;5.34;91.63;98731.25;3765471;77;43677;-69
2021/03/22 12:02:20;;;;;;;16.70;4.83;;;;;;;5.47;90.69;98731.95;3781439;77;43758;-69
2021/03/22 12:07:49;;;;;;;13.33;4.77;;;;;;;5.49;87.04;98729.19;3760425;77;43461;-65
2021/03/22 12:12:57;;;;;;;13.73;4.90;;;;;;;5.45;86.15;98715.69;3778371;77;43137;-67
2021/03/22 12:18:10;;;;;;;16.03;5.17;;;;;;;5.71;86.51;98713.13;3795363;77;42922;-67
2021/03/22 12:23:17;;;;;;;11.27;4.33;;;;;;;6.17;86.47;98709.89;3775316;77;43683;-68
2021/03/22 12:28:23;;;;;;;9.50;3.70;;;;;;;6.39;86.02;98703.27;3787467;77;43116;-68
2021/03/22 12:33:31;;;;;;;10.13;3.87;;;;;;;6.17;78.58;98702.38;3787963;77;43353;-67
2021/03/22 12:38:37;;;;;;;12.27;4.13;;;;;;;6.16;78.95;98709.56;3773394;77;43454;-66
2021/03/22 12:43:44;;;;;;;13.53;3.77;;;;;;;6.06;78.94;98711.77;3771596;77;43686;-66
2021/03/22 12:48:50;;;;;;;13.07;3.87;;;;;;;6.35;78.35;98713.37;3786583;77;43686;-65
2021/03/22 12:53:56;;;;;;;10.37;3.33;;;;;;;6.64;79.80;98715.47;3791931;77;43423;-71
2021/03/22 12:59:02;;;;;;;9.87;3.20;;;;;;;6.88;78.11;98719.73;3790890;77;44035;-67
2021/03/22 13:04:08;;;;;;;8.20;2.43;;;;;;;6.37;69.00;98726.63;3790214;77;44098;-69
2021/03/22 13:09:14;;;;;;;11.10;3.30;;;;;;;7.14;74.76;98720.64;3786227;77;43581;-68
2021/03/22 13:14:21;;;;;;;8.40;2.80;;;;;;;6.92;70.79;98716.66;3786006;77;43523;-67
2021/03/22 13:19:27;;;;;;;9.67;2.40;;;;;;;6.70;67.87;98718.95;3782446;77;44128;-66
2021/03/22 13:24:33;;;;;;;8.23;2.40;;;;;;;6.70;69.82;98721.63;3792252;77;43324;-67
2021/03/22 13:29:39;;;;;;;7.90;3.13;;;;;;;6.55;64.77;98715.74;3789118;77;43687;-64
2021/03/22 13:34:45;;;;;;;8.87;2.43;;;;;;;6.60;64.67;98712.17;3801848;77;44167;-65
2021/03/22 13:39:51;;;;;;;8.17;2.53;;;;;;;7.55;67.66;98719.73;3765017;77;43759;-65
2021/03/22 13:44:57;;;;;;;4.87;2.57;;;;;;;7.28;61.53;98710.09;3767879;77;64824;-68
2021/03/22 13:50:03;;;;;;;8.73;2.80;;;;;;;7.03;67.21;98711.70;3785475;77;43287;-68
2021/03/22 13:55:13;;;;;;;8.67;3.43;;;;;;;6.88;65.88;98715.71;3786451;77;43438;-67
2021/03/22 14:00:19;;;;;;;8.60;3.13;;;;;;;6.76;70.51;98711.72;3778384;77;43698;-67
2021/03/22 14:05:27;;;;;;;9.60;2.97;;;;;;;6.74;69.22;98708.35;3798193;77;43489;-66
2021/03/22 14:10:34;;;;;;;11.37;2.90;;;;;;;6.80;69.83;98705.64;3780126;77;71132;-68
2021/03/22 14:15:42;;;;;;;6.03;2.70;;;;;;;6.66;65.82;98705.45;3793848;77;43339;-66
2021/03/22 14:20:49;;;;;;;8.47;2.90;;;;;;;6.65;68.42;98707.77;3788516;77;43364;-63
2021/03/22 14:25:56;;;;;;;10.53;2.83;;;;;;;6.74;69.41;98708.35;3782249;77;43369;-67
2021/03/22 14:31:02;;;;;;;8.40;3.30;;;;;;;6.75;74.31;98707.84;3791830;77;69520;-67
2021/03/22 14:36:09;;;;;;;8.17;2.70;;;;;;;6.82;67.62;98707.67;3782387;77;44411;-68
2021/03/22 14:41:15;;;;;;;8.63;2.90;;;;;;;6.96;66.68;98705.66;3789335;77;44039;-67
2021/03/22 14:46:22;;;;;;;6.93;2.70;;;;;;;7.20;64.70;98697.35;3767952;77;43369;-67
2021/03/22 14:51:30;;;;;;;12.28;3.17;;;;;;;7.86;60.14;98702.28;3752607;78;44732;-67
2021/03/22 14:56:37;;;;;;;7.57;2.60;;;;;;;7.76;63.22;98697.86;3747200;78;44545;-67
2021/03/22 15:01:45;;;;;;;5.67;2.20;;;;;;;8.11;60.59;98700.08;3743438;78;43276;-67
2021/03/22 15:06:51;;;;;;;5.37;2.50;;;;;;;8.44;55.92;98695.77;3747252;78;44044;-67
2021/03/22 15:11:57;;;;;;;6.40;2.60;;;;;;;8.76;55.58;98691.49;3665807;80;44133;-66
2021/03/22 15:17:04;;;;;;;10.67;2.53;;;;;;;8.60;53.28;98692.55;3634551;81;44071;-66
2021/03/22 15:22:10;;;;;;;8.18;2.98;;;;;;;9.08;54.94;98686.27;3661710;80;43284;-66
2021/03/22 15:27:16;;;;;;;8.10;2.70;;;;;;;8.93;55.73;98696.63;3700460;79;44178;-65
2021/03/22 15:32:22;;;;;;;7.43;2.47;;;;;;;8.80;54.59;98681.30;3708255;79;44472;-67
2021/03/22 15:37:28;;;;;;;6.62;2.40;;;;;;;8.60;54.59;98684.02;3677360;80;43326;-67
2021/03/22 15:42:34;;;;;;;5.40;2.33;;;;;;;8.63;54.84;98689.11;3595946;81;43711;-68
2021/03/22 15:47:41;;;;;;;7.08;2.50;;;;;;;9.10;56.36;98699.06;3685494;79;43227;-67
2021/03/22 15:52:47;;;;;;;8.65;3.08;;;;;;;8.75;55.20;98697.02;3679446;79;44020;-66
2021/03/22 15:57:54;;;;;;;6.72;2.50;;;;;;;8.98;51.15;98695.36;3674539;79;44815;-66
2021/03/22 16:03:03;;;;;;;6.05;2.37;;;;;;;9.18;51.51;98691.63;3682133;79;44497;-65
2021/03/22 16:08:12;;;;;;;7.47;2.70;;;;;;;8.79;49.68;98701.09;3674844;79;43039;-66
2021/03/22 16:13:20;;;;;;;8.13;2.72;;;;;;;9.08;53.28;98700.22;3684959;79;44034;-68
2021/03/22 16:18:28;;;;;;;6.40;2.47;;;;;;;9.22;51.27;98701.11;3677458;79;44645;-69
2021/03/22 16:23:36;;;;;;;6.40;2.40;;;;;;;8.98;53.59;98698.05;3688723;79;69160;-69
2021/03/22 16:28:42;;;;;;;7.70;3.15;;;;;;;8.74;51.58;98697.50;3679907;79;44104;-71
2021/03/22 16:33:49;;;;;;;8.73;2.80;;;;;;;8.70;52.75;98712.19;3684168;79;44016;-76
2021/03/22 16:38:56;;;;;;;6.87;2.05;;;;;;;8.52;51.48;98713.43;3670618;79;44428;-66
2021/03/22 16:44:02;;;;;;;6.53;2.40;;;;;;;8.46;55.49;98718.84;3711117;79;42934;-70
2021/03/22 16:49:08;;;;;;;4.70;2.20;;;;;;;8.23;57.31;98722.26;3610335;81;43020;-67
2021/03/22 16:54:14;;;;;;;6.83;2.37;;;;;;;7.90;57.92;98728.81;3689419;79;43415;-67
2021/03/22 16:59:20;;;;;;;6.90;2.67;;;;;;;7.88;58.50;98728.13;3767383;77;43056;-67
2021/03/22 17:04:25;;;;;;;8.90;2.73;;;;;;;7.85;59.49;98724.72;3744275;77;44013;-70
2021/03/22 17:09:32;;;;;;;6.65;2.70;;;;;;;7.65;62.86;98729.16;3744817;77;44052;-69
2021/03/22 17:14:39;;;;;;;7.83;2.90;;;;;;;7.57;62.22;98735.70;3737399;77;43640;-71
2021/03/22 17:19:45;;;;;;;5.92;2.65;;;;;;;7.23;64.16;98739.97;3772634;77;43690;-72
2021/03/22 17:24:52;;;;;;;11.20;2.67;;;;;;;7.04;64.09;98752.25;3776923;77;44493;-68
2021/03/22 17:29:58;;;;;;;8.23;3.70;;;;;;;6.81;63.98;98746.65;3781779;77;43494;-69
2021/03/22 17:35:06;;;;;;;6.80;3.00;;;;;;;6.60;64.22;98756.84;3779202;77;44040;-71
2021/03/22 17:40:15;;;;;;;8.33;2.30;;;;;;;6.49;62.87;98752.38;3770606;77;43467;-70
2021/03/22 17:45:23;;;;;;;10.00;2.90;;;;;;;6.29;64.24;98758.05;3784396;77;43486;-71
2021/03/22 17:50:32;;;;;;;6.47;2.77;;;;;;;6.24;65.02;98764.25;3775043;77;43637;-69
2021/03/22 17:55:38;;;;;;;6.53;2.80;;;;;;;6.10;66.94;98762.21;3784588;77;43075;-69
2021/03/22 18:00:44;;;;;;;4.87;2.63;;;;;;;5.86;69.60;98771.20;3779832;77;44116;-70
2021/03/22 18:05:50;;;;;;;7.43;3.00;;;;;;;5.64;72.78;98775.22;3782100;77;43867;-70
2021/03/22 18:10:56;;;;;;;13.30;4.00;;;;;;;5.50;74.10;98787.01;3785295;77;43676;-69
2021/03/22 18:16:03;;;;;;;13.07;4.10;;;;;;;5.37;76.39;98795.11;3776129;77;43179;-66
2021/03/22 18:21:10;;;;;;;9.87;4.53;;;;;;;5.12;78.09;98798.83;3761177;77;43685;-70
2021/03/22 18:26:16;;;;;;;11.73;4.60;;;;;;;4.64;81.71;98803.27;3772820;77;43428;-65
2021/03/22 18:31:23;;;;;;;10.53;3.83;;;;;;;4.48;82.12;98803.05;3687857;78;43312;-66
2021/03/22 18:36:29;;;;;;;12.37;3.43;;;;;;;4.44;79.50;98820.73;3607185;81;44430;-67
2021/03/22 18:41:35;;;;;;;11.47;3.77;;;;;;;4.50;78.83;98820.77;3654673;80;44583;-65
2021/03/22 18:46:44;;;;;;;9.03;3.47;;;;;;;4.61;79.40;98827.50;3602946;81;44184;-72
2021/03/22 18:51:50;;;;;;;8.67;3.70;;;;;;;4.71;81.03;98836.53;3607840;81;44084;-67
2021/03/22 18:56:57;;;;;;;11.77;3.57;;;;;;;4.77;80.55;98837.42;3674632;79;44072;-72
2021/03/22 19:02:05;;;;;;;7.53;3.00;;;;;;;4.74;81.16;98842.14;3645424;80;44450;-71
2021/03/22 19:07:12;;;;;;;8.27;3.87;;;;;;;4.62;83.94;98861.23;3634090;80;43855;-70
2021/03/22 19:12:19;;;;;;;8.90;3.40;;;;;;;4.49;84.81;98861.29;3675219;80;43981;-71
2021/03/22 19:17:25;;;;;;;11.67;3.70;;;;;;;4.35;87.75;98868.10;3676332;80;43678;-70
2021/03/22 19:22:32;;;;;;;9.63;4.57;;;;;;;4.24;88.84;98871.06;3591017;81;43392;-71
2021/03/22 19:27:38;;;;;;;11.97;4.70;;;;;;;4.09;88.85;98868.14;3599514;81;43686;-72
2021/03/22 19:32:44;;;;;;;13.83;7.33;;;;;;;3.83;89.52;98877.03;3673772;80;44058;-68
2021/03/22 19:37:50;;;;;;;11.17;5.87;;;;;;;3.70;90.96;98878.34;3598307;81;43018;-73
2021/03/22 19:42:56;;;;;;;17.43;6.77;;;;;;;3.62;91.87;98880.70;3617360;81;44052;-68
2021/03/22 19:48:06;;;;;;;12.40;5.30;;;;;;;3.57;91.06;98885.51;3661283;78;43683;-68
2021/03/22 19:53:14;;;;;;;9.13;4.27;;;;;;;3.62;91.36;98898.52;3638953;81;43321;-72
2021/03/22 19:58:20;;;;;;;8.30;3.97;;;;;;;3.59;91.79;98902.22;3639596;81;43674;-68
2021/03/22 20:03:26;;;;;;;8.60;3.80;;;;;;;3.63;91.23;98903.72;3590394;82;44210;-67
2021/03/22 20:08:32;;;;;;;11.60;3.63;;;;;;;3.70;90.38;98903.66;3589416;82;42947;-69
2021/03/22 20:13:46;;;;;;;11.77;4.20;;;;;;;3.76;90.04;98912.20;3539732;83;44461;-69
2021/03/22 20:18:47;;;;;;;12.37;4.47;;;;;;;3.76;89.67;98913.54;3592309;80;44122;-70
2021/03/22 20:23:53;;;;;;;11.03;4.63;;;;;;;3.74;90.34;98921.66;3589975;82;43457;-68
2021/03/22 20:28:59;;;;;;;7.43;3.83;;;;;;;3.66;91.11;98922.17;3528350;84;43043;-69
2021/03/22 20:34:08;;;;;;;8.27;4.00;;;;;;;3.55;89.57;98920.23;3638826;79;43508;-69
2021/03/22 20:39:15;;;;;;;10.87;4.20;;;;;;;3.63;89.05;98920.20;3599577;82;43715;-68
2021/03/22 20:44:21;;;;;;;8.67;4.10;;;;;;;3.57;88.77;98925.94;3582901;82;44244;-71
2021/03/22 20:49:27;;;;;;;8.60;3.93;;;;;;;3.69;88.17;98932.63;3547235;83;43647;-71
2021/03/22 20:54:34;;;;;;;8.13;4.10;;;;;;;3.69;87.55;98932.63;3583179;82;43709;-72
2021/03/22 20:59:40;;;;;;;10.47;4.03;;;;;;;3.90;86.53;98928.57;3533982;83;43681;-75
2021/03/22 21:04:47;;;;;;;10.57;4.17;;;;;;;3.90;85.49;98932.11;3635499;80;43170;-69
2021/03/22 21:09:53;;;;;;;9.20;4.13;;;;;;;3.83;87.77;98937.00;3699285;80;43461;-71
2021/03/22 21:14:59;;;;;;;8.03;4.37;;;;;;;3.87;88.16;98940.30;3548054;82;44222;-70
2021/03/22 21:20:07;;;;;;;10.90;4.60;;;;;;;4.04;88.62;98938.30;3640504;80;43635;-70
2021/03/22 21:25:14;;;;;;;9.97;4.27;;;;;;;3.97;89.72;98943.20;3573355;82;43690;-71
2021/03/22 21:30:26;;;;;;;9.73;4.83;;;;;;;3.81;89.38;98944.73;3614247;82;44074;-67
2021/03/22 21:35:33;;;;;;;9.87;5.57;;;;;;;3.75;92.01;98948.68;3576215;82;43490;-68
2021/03/22 21:40:39;;;;;;;10.80;4.77;;;;;;;3.78;93.68;98952.94;3557690;83;44046;-69
2021/03/22 21:45:46;;;;;;;12.07;4.87;;;;;;;3.82;94.13;98950.45;3679215;80;43707;-69
2021/03/22 21:50:53;;;;;;;9.70;4.87;;;;;;;3.75;96.51;98957.14;3660561;80;43431;-69
2021/03/22 21:56:00;;;;;;;10.83;4.43;;;;;;;3.77;100.00;98955.23;3616540;81;43449;-70
2021/03/22 22:01:06;;;;;;;9.47;4.53;;;;;;;3.75;100.00;98961.14;3657129;80;43715;-70
2021/03/22 22:06:14;;;;;;;9.83;4.33;;;;;;;3.87;100.00;98957.63;3566857;81;43304;-67
2021/03/22 22:11:20;;;;;;;10.17;4.73;;;;;;;3.80;100.00;98961.69;3638950;81;42898;-70
2021/03/22 22:16:27;;;;;;;6.97;4.23;;;;;;;3.83;100.00;98958.33;3664141;80;43244;-71
2021/03/22 22:21:33;;;;;;;10.37;4.80;;;;;;;3.80;100.00;98957.69;3642648;80;44440;-71
2021/03/22 22:26:39;;;;;;;9.80;4.80;;;;;;;3.74;100.00;98964.30;3584086;81;43575;-71
2021/03/22 22:31:46;;;;;;;7.50;4.60;;;;;;;3.75;100.00;98958.01;3571114;83;43412;-73
2021/03/22 22:36:53;;;;;;;7.80;4.40;;;;;;;3.78;100.00;98960.94;3703502;80;44641;-73
2021/03/22 22:41:59;;;;;;;10.57;4.67;;;;;;;3.86;100.00;98959.92;3661994;80;44470;-73
2021/03/22 22:47:06;;;;;;;9.47;5.40;;;;;;;3.83;100.00;98955.66;3713756;80;43591;-72
2021/03/22 22:52:12;;;;;;;11.43;5.73;;;;;;;3.72;100.00;98954.67;3648724;79;44079;-72
2021/03/22 22:57:18;;;;;;;9.13;5.40;;;;;;;3.48;100.00;98954.04;3677379;80;44010;-71
2021/03/22 23:02:26;;;;;;;10.30;5.50;;;;;;;3.43;100.00;98954.84;3668514;80;43550;-71
2021/03/22 23:07:33;;;;;;;9.47;5.60;;;;;;;3.42;100.00;98961.97;3649282;80;43096;-72
2021/03/22 23:12:40;;;;;;;8.70;4.90;;;;;;;3.32;100.00;98960.41;3649313;80;43706;-72
2021/03/22 23:17:46;;;;;;;10.00;4.90;;;;;;;3.37;100.00;98967.60;3688265;80;43758;-72
2021/03/22 23:22:56;;;;;;;8.07;5.00;;;;;;;3.59;100.00;98955.50;3642255;80;43655;-72
2021/03/22 23:28:05;;;;;;;9.77;4.73;;;;;;;3.59;100.00;98962.66;3689083;80;44361;-72
2021/03/22 23:33:15;;;;;;;8.53;5.10;;;;;;;3.68;100.00;98965.56;3656005;80;44114;-71
2021/03/22 23:38:21;;;;;;;10.87;4.80;;;;;;;3.78;100.00;98960.94;3638626;80;43318;-72
2021/03/22 23:43:27;;;;;;;12.23;5.40;;;;;;;3.85;100.00;98956.41;3627016;80;44459;-72
2021/03/22 23:48:36;;;;;;;7.07;4.40;;;;;;;3.88;100.00;98950.01;3689135;80;43446;-72
2021/03/22 23:53:41;;;;;;;8.50;5.30;;;;;;;3.98;100.00;98958.23;3670352;80;44038;-71
2021/03/22 23:58:48;;;;;;;10.30;5.63;;;;;;;4.01;100.00;98954.88;3680550;80;43690;-72
